createdAt,value
2017-04-28T00:00:11.650Z,9.21
2017-04-28T00:00:52.274Z,9.11
2017-04-28T00:01:32.881Z,9.03
2017-04-28T00:02:13.473Z,9.08
2017-04-28T00:02:54.072Z,9.1
2017-04-28T00:03:34.660Z,9.14
2017-04-28T00:04:15.259Z,9.11
2017-04-28T00:04:55.845Z,9.06
2017-04-28T00:05:36.413Z,9.08
2017-04-28T00:06:17.025Z,9.1
2017-04-28T00:06:57.611Z,9.11
2017-04-28T00:07:44.709Z,9.11
2017-04-28T00:08:25.306Z,9.19
2017-04-28T00:09:05.940Z,8.99
2017-04-28T00:09:46.530Z,9.08
2017-04-28T00:10:27.108Z,9.08
2017-04-28T00:11:07.759Z,9.08
2017-04-28T00:11:48.329Z,8.99
2017-04-28T00:12:28.959Z,8.94
2017-04-28T00:13:09.561Z,9.11
2017-04-28T00:13:50.152Z,9.08
2017-04-28T00:14:30.755Z,8.89
2017-04-28T00:15:11.343Z,8.91
2017-04-28T00:15:51.935Z,9
2017-04-28T00:16:32.514Z,8.99
2017-04-28T00:17:13.107Z,9
2017-04-28T00:17:53.683Z,8.95
2017-04-28T00:18:34.260Z,8.97
2017-04-28T00:19:14.833Z,8.88
2017-04-28T00:19:55.415Z,8.88
2017-04-28T00:20:36.001Z,9.02
2017-04-28T00:21:16.600Z,8.99
2017-04-28T00:21:57.205Z,8.95
2017-04-28T00:22:37.829Z,8.94
2017-04-28T00:23:18.391Z,8.91
2017-04-28T00:23:58.984Z,8.89
2017-04-28T00:24:39.573Z,8.97
2017-04-28T00:25:20.185Z,8.97
2017-04-28T00:26:00.780Z,8.95
2017-04-28T00:26:41.368Z,8.95
2017-04-28T00:27:21.943Z,8.89
2017-04-28T00:28:02.538Z,8.99
2017-04-28T00:28:43.111Z,8.92
2017-04-28T00:29:23.749Z,8.92
2017-04-28T00:30:04.334Z,8.92
2017-04-28T00:30:44.908Z,9.02
2017-04-28T00:31:25.508Z,8.94
2017-04-28T00:32:06.089Z,8.99
2017-04-28T00:32:46.719Z,8.88
2017-04-28T00:33:32.539Z,8.94
2017-04-28T00:34:13.142Z,8.91
2017-04-28T00:34:53.723Z,8.92
2017-04-28T00:35:34.331Z,8.89
2017-04-28T00:36:14.926Z,8.94
2017-04-28T00:36:55.573Z,8.95
2017-04-28T00:37:36.191Z,8.88
2017-04-28T00:38:16.778Z,8.94
2017-04-28T00:38:57.374Z,8.84
2017-04-28T00:39:37.981Z,8.91
2017-04-28T00:40:18.610Z,8.91
2017-04-28T00:40:59.213Z,8.85
2017-04-28T00:41:39.805Z,8.95
2017-04-28T00:42:20.388Z,8.88
2017-04-28T00:43:00.964Z,8.91
2017-04-28T00:43:41.539Z,8.84
2017-04-28T00:44:22.113Z,8.91
2017-04-28T00:45:02.711Z,8.88
2017-04-28T00:45:43.292Z,8.91
2017-04-28T00:46:23.869Z,8.88
2017-04-28T00:47:04.487Z,8.88
2017-04-28T00:47:45.114Z,8.74
2017-04-28T00:48:25.703Z,8.78
2017-04-28T00:49:06.266Z,8.76
2017-04-28T00:49:46.841Z,8.74
2017-04-28T00:50:27.423Z,8.76
2017-04-28T00:51:07.998Z,8.74
2017-04-28T00:51:48.599Z,8.78
2017-04-28T00:52:29.181Z,8.78
2017-04-28T00:53:09.757Z,8.78
2017-04-28T00:53:50.332Z,8.81
2017-04-28T00:54:30.902Z,8.74
2017-04-28T00:55:11.502Z,8.74
2017-04-28T00:55:52.092Z,8.74
2017-04-28T00:56:32.655Z,8.74
2017-04-28T00:57:13.244Z,8.78
2017-04-28T00:57:53.811Z,8.76
2017-04-28T00:58:34.408Z,8.78
2017-04-28T00:59:14.981Z,8.74
2017-04-28T00:59:55.571Z,8.7
2017-04-28T01:00:36.150Z,8.78
2017-04-28T01:01:16.716Z,8.79
2017-04-28T01:01:57.341Z,8.76
2017-04-28T01:02:37.903Z,8.76
2017-04-28T01:03:18.495Z,8.78
2017-04-28T01:03:59.084Z,8.78
2017-04-28T01:04:39.666Z,8.71
2017-04-28T01:05:20.234Z,8.73
2017-04-28T01:06:00.831Z,8.73
2017-04-28T01:06:41.422Z,8.64
2017-04-28T01:07:21.984Z,8.74
2017-04-28T01:08:02.581Z,8.67
2017-04-28T01:08:43.214Z,8.73
2017-04-28T01:09:23.791Z,8.67
2017-04-28T01:10:04.382Z,8.64
2017-04-28T01:10:44.976Z,8.69
2017-04-28T01:11:25.584Z,8.64
2017-04-28T01:12:06.190Z,8.78
2017-04-28T01:12:46.830Z,8.67
2017-04-28T01:13:27.415Z,8.63
2017-04-28T01:14:08.004Z,8.64
2017-04-28T01:14:48.597Z,8.67
2017-04-28T01:15:29.224Z,8.64
2017-04-28T01:16:09.831Z,8.63
2017-04-28T01:16:50.422Z,8.69
2017-04-28T01:17:31.012Z,8.74
2017-04-28T01:18:11.634Z,8.63
2017-04-28T01:18:52.283Z,8.64
2017-04-28T01:19:32.868Z,8.71
2017-04-28T01:20:13.495Z,8.69
2017-04-28T01:20:54.107Z,8.67
2017-04-28T01:21:34.695Z,8.7
2017-04-28T01:22:15.310Z,8.67
2017-04-28T01:22:55.911Z,8.63
2017-04-28T01:23:36.498Z,8.64
2017-04-28T01:24:17.112Z,8.64
2017-04-28T01:24:57.714Z,8.67
2017-04-28T01:25:38.313Z,8.69
2017-04-28T01:26:18.881Z,8.61
2017-04-28T01:26:59.454Z,8.61
2017-04-28T01:27:40.041Z,8.64
2017-04-28T01:28:20.635Z,8.63
2017-04-28T01:29:01.243Z,8.64
2017-04-28T01:29:41.826Z,8.64
2017-04-28T01:30:22.408Z,8.58
2017-04-28T01:31:03.029Z,8.61
2017-04-28T01:31:43.631Z,8.6
2017-04-28T01:32:24.212Z,8.63
2017-04-28T01:33:04.795Z,8.61
2017-04-28T01:33:45.367Z,8.61
2017-04-28T01:34:25.979Z,8.52
2017-04-28T01:35:06.574Z,8.63
2017-04-28T01:35:47.156Z,8.58
2017-04-28T01:36:27.739Z,8.61
2017-04-28T01:37:08.329Z,8.58
2017-04-28T01:37:48.920Z,8.63
2017-04-28T01:38:29.506Z,8.6
2017-04-28T01:39:10.077Z,8.61
2017-04-28T01:39:50.661Z,8.58
2017-04-28T01:40:31.249Z,8.61
2017-04-28T01:41:11.851Z,8.63
2017-04-28T01:41:52.415Z,8.6
2017-04-28T01:42:32.984Z,8.56
2017-04-28T01:43:13.558Z,8.6
2017-04-28T01:43:54.152Z,8.6
2017-04-28T01:44:34.730Z,8.6
2017-04-28T01:45:15.289Z,8.63
2017-04-28T01:45:55.872Z,8.66
2017-04-28T01:46:36.484Z,8.58
2017-04-28T01:47:17.078Z,8.66
2017-04-28T01:47:57.683Z,8.64
2017-04-28T01:48:38.280Z,8.56
2017-04-28T01:49:18.869Z,8.55
2017-04-28T01:49:59.470Z,8.53
2017-04-28T01:50:40.058Z,8.51
2017-04-28T01:51:20.632Z,8.56
2017-04-28T01:52:01.241Z,8.52
2017-04-28T01:52:41.845Z,8.49
2017-04-28T01:53:22.442Z,8.51
2017-04-28T01:54:03.056Z,8.52
2017-04-28T01:54:43.623Z,8.52
2017-04-28T01:55:24.203Z,8.49
2017-04-28T01:56:04.796Z,8.53
2017-04-28T01:56:45.379Z,8.63
2017-04-28T01:57:25.959Z,8.51
2017-04-28T01:58:06.527Z,8.6
2017-04-28T01:58:47.174Z,8.61
2017-04-28T01:59:27.670Z,8.6
2017-04-28T02:00:08.234Z,8.63
2017-04-28T02:00:48.919Z,8.6
2017-04-28T02:01:29.508Z,8.58
2017-04-28T02:02:10.120Z,8.61
2017-04-28T02:02:50.706Z,8.6
2017-04-28T02:03:31.324Z,8.63
2017-04-28T02:04:11.881Z,8.63
2017-04-28T02:04:52.494Z,8.61
2017-04-28T02:05:33.083Z,8.58
2017-04-28T02:06:13.651Z,8.64
2017-04-28T02:06:54.261Z,8.63
2017-04-28T02:07:34.874Z,8.63
2017-04-28T02:08:15.495Z,8.61
2017-04-28T02:08:56.087Z,8.63
2017-04-28T02:09:36.660Z,8.64
2017-04-28T02:10:17.224Z,8.6
2017-04-28T02:10:57.801Z,8.64
2017-04-28T02:11:38.406Z,8.61
2017-04-28T02:12:18.989Z,8.56
2017-04-28T02:12:59.616Z,8.61
2017-04-28T02:13:40.213Z,8.61
2017-04-28T02:14:20.782Z,8.64
2017-04-28T02:15:01.372Z,8.66
2017-04-28T02:15:41.952Z,8.58
2017-04-28T02:16:22.534Z,8.67
2017-04-28T02:17:03.108Z,8.61
2017-04-28T02:17:43.695Z,8.61
2017-04-28T02:18:24.274Z,8.61
2017-04-28T02:19:04.856Z,8.58
2017-04-28T02:19:45.464Z,8.66
2017-04-28T02:20:26.053Z,8.6
2017-04-28T02:21:06.671Z,8.58
2017-04-28T02:21:47.315Z,8.6
2017-04-28T02:22:27.897Z,8.63
2017-04-28T02:23:08.459Z,8.61
2017-04-28T02:23:49.053Z,8.58
2017-04-28T02:24:29.626Z,8.6
2017-04-28T02:25:10.205Z,8.6
2017-04-28T02:25:50.805Z,8.53
2017-04-28T02:26:31.370Z,8.63
2017-04-28T02:27:11.964Z,8.6
2017-04-28T02:27:52.548Z,8.64
2017-04-28T02:28:33.112Z,8.6
2017-04-28T02:29:13.714Z,8.49
2017-04-28T02:29:54.303Z,8.58
2017-04-28T02:30:34.899Z,8.52
2017-04-28T02:31:15.487Z,8.53
2017-04-28T02:31:56.056Z,8.52
2017-04-28T02:32:36.697Z,8.52
2017-04-28T02:33:17.268Z,8.51
2017-04-28T02:33:57.850Z,8.53
2017-04-28T02:34:38.461Z,8.52
2017-04-28T02:35:19.037Z,8.49
2017-04-28T02:35:59.638Z,8.51
2017-04-28T02:36:40.204Z,8.42
2017-04-28T02:37:20.771Z,8.56
2017-04-28T02:38:01.364Z,8.51
2017-04-28T02:38:41.949Z,8.38
2017-04-28T02:39:22.551Z,8.42
2017-04-28T02:40:03.164Z,8.46
2017-04-28T02:40:43.739Z,8.46
2017-04-28T02:41:24.349Z,8.42
2017-04-28T02:42:04.910Z,8.49
2017-04-28T02:42:45.493Z,8.38
2017-04-28T02:43:26.077Z,8.38
2017-04-28T02:44:06.663Z,8.36
2017-04-28T02:44:47.247Z,8.41
2017-04-28T02:45:27.835Z,8.34
2017-04-28T02:46:08.414Z,8.37
2017-04-28T02:46:48.986Z,8.38
2017-04-28T02:47:29.556Z,8.36
2017-04-28T02:48:10.185Z,8.42
2017-04-28T02:48:50.764Z,8.45
2017-04-28T02:49:31.348Z,8.34
2017-04-28T02:50:11.929Z,8.31
2017-04-28T02:50:52.509Z,8.42
2017-04-28T02:51:33.102Z,8.34
2017-04-28T02:52:13.682Z,8.3
2017-04-28T02:52:54.302Z,8.36
2017-04-28T02:53:34.897Z,8.26
2017-04-28T02:54:15.467Z,8.31
2017-04-28T02:54:56.227Z,8.34
2017-04-28T02:55:36.960Z,8.31
2017-04-28T02:56:17.606Z,8.33
2017-04-28T02:56:58.202Z,8.3
2017-04-28T02:57:39.030Z,8.24
2017-04-28T02:58:19.723Z,8.3
2017-04-28T02:59:00.401Z,8.33
2017-04-28T02:59:40.985Z,8.26
2017-04-28T03:00:21.601Z,8.3
2017-04-28T03:01:02.190Z,8.27
2017-04-28T03:01:42.774Z,8.3
2017-04-28T03:02:23.415Z,8.31
2017-04-28T03:03:04.343Z,8.24
2017-04-28T03:03:45.273Z,8.23
2017-04-28T03:04:26.117Z,8.26
2017-04-28T03:05:06.727Z,8.23
2017-04-28T03:05:47.342Z,8.23
2017-04-28T03:06:27.900Z,8.2
2017-04-28T03:07:08.490Z,8.18
2017-04-28T03:07:49.074Z,8.19
2017-04-28T03:08:29.642Z,8.26
2017-04-28T03:09:10.228Z,8.2
2017-04-28T03:09:50.822Z,8.24
2017-04-28T03:10:31.423Z,8.19
2017-04-28T03:11:12.009Z,8.19
2017-04-28T03:11:52.577Z,8.18
2017-04-28T03:12:33.186Z,8.18
2017-04-28T03:13:13.761Z,8.12
2017-04-28T03:13:54.334Z,8.15
2017-04-28T03:14:34.918Z,8.12
2017-04-28T03:15:15.512Z,8.03
2017-04-28T03:15:56.094Z,8.13
2017-04-28T03:16:36.674Z,8.09
2017-04-28T03:17:17.272Z,8.18
2017-04-28T03:17:57.857Z,8.15
2017-04-28T03:18:38.445Z,8.05
2017-04-28T03:19:19.017Z,8.05
2017-04-28T03:19:59.579Z,8.01
2017-04-28T03:20:40.175Z,8.05
2017-04-28T03:21:20.779Z,7.91
2017-04-28T03:22:01.355Z,7.95
2017-04-28T03:22:41.977Z,7.88
2017-04-28T03:23:22.572Z,7.95
2017-04-28T03:24:03.152Z,7.88
2017-04-28T03:24:43.759Z,7.88
2017-04-28T03:25:24.344Z,7.91
2017-04-28T03:26:05.466Z,7.9
2017-04-28T03:26:46.405Z,7.9
2017-04-28T03:27:27.021Z,7.82
2017-04-28T03:28:07.653Z,7.77
2017-04-28T03:28:48.319Z,7.77
2017-04-28T03:29:28.941Z,7.8
2017-04-28T03:30:09.526Z,7.79
2017-04-28T03:30:50.102Z,7.79
2017-04-28T03:31:30.677Z,7.87
2017-04-28T03:32:11.268Z,7.87
2017-04-28T03:32:51.857Z,7.75
2017-04-28T03:33:32.432Z,7.79
2017-04-28T03:34:13.023Z,7.77
2017-04-28T03:34:53.621Z,7.75
2017-04-28T03:35:34.228Z,7.7
2017-04-28T03:36:14.805Z,7.72
2017-04-28T03:36:55.371Z,7.75
2017-04-28T03:37:35.945Z,7.73
2017-04-28T03:38:16.545Z,7.73
2017-04-28T03:38:57.149Z,7.73
2017-04-28T03:39:37.711Z,7.73
2017-04-28T03:40:18.290Z,7.76
2017-04-28T03:40:58.874Z,7.7
2017-04-28T03:41:39.450Z,7.77
2017-04-28T03:42:20.023Z,7.75
2017-04-28T03:43:00.599Z,7.7
2017-04-28T03:43:41.244Z,7.73
2017-04-28T03:44:21.817Z,7.73
2017-04-28T03:45:02.389Z,7.77
2017-04-28T03:45:42.980Z,7.76
2017-04-28T03:46:23.640Z,7.75
2017-04-28T03:47:04.213Z,7.75
2017-04-28T03:47:44.868Z,7.73
2017-04-28T03:48:25.462Z,7.72
2017-04-28T03:49:06.061Z,7.72
2017-04-28T03:49:46.656Z,7.72
2017-04-28T03:50:27.235Z,7.76
2017-04-28T03:51:07.818Z,7.63
2017-04-28T03:51:48.410Z,7.72
2017-04-28T03:52:28.991Z,7.75
2017-04-28T03:53:09.599Z,7.69
2017-04-28T03:53:50.222Z,7.73
2017-04-28T03:54:30.886Z,7.72
2017-04-28T03:55:11.476Z,7.7
2017-04-28T03:55:52.059Z,7.73
2017-04-28T03:56:32.661Z,7.7
2017-04-28T03:57:13.243Z,7.7
2017-04-28T03:57:53.824Z,7.75
2017-04-28T03:58:34.466Z,7.72
2017-04-28T03:59:15.096Z,7.72
2017-04-28T04:01:08.516Z,7.69
2017-04-28T04:01:49.138Z,7.63
2017-04-28T04:02:29.733Z,7.63
2017-04-28T04:03:10.335Z,7.67
2017-04-28T04:03:50.967Z,7.69
2017-04-28T04:04:34.250Z,7.63
2017-04-28T04:05:14.824Z,7.58
2017-04-28T04:05:55.432Z,7.7
2017-04-28T04:06:36.017Z,7.67
2017-04-28T04:07:16.603Z,7.67
2017-04-28T04:07:57.170Z,7.72
2017-04-28T04:08:37.763Z,7.72
2017-04-28T04:09:18.358Z,7.66
2017-04-28T04:09:58.935Z,7.72
2017-04-28T04:10:39.514Z,7.82
2017-04-28T04:12:52.648Z,7.77
2017-04-28T04:14:46.584Z,7.7
2017-04-28T04:15:27.160Z,7.69
2017-04-28T04:16:07.736Z,7.72
2017-04-28T04:16:48.298Z,7.66
2017-04-28T04:17:28.897Z,7.6
2017-04-28T04:18:09.474Z,7.6
2017-04-28T04:18:50.082Z,7.66
2017-04-28T04:19:30.717Z,7.69
2017-04-28T04:20:11.307Z,7.63
2017-04-28T04:20:51.896Z,7.6
2017-04-28T04:21:32.471Z,7.58
2017-04-28T04:22:13.076Z,7.57
2017-04-28T04:22:53.656Z,7.54
2017-04-28T04:23:34.261Z,7.58
2017-04-28T04:24:14.856Z,7.51
2017-04-28T04:24:55.462Z,7.6
2017-04-28T04:25:36.038Z,7.56
2017-04-28T04:26:16.633Z,7.57
2017-04-28T04:26:57.242Z,7.5
2017-04-28T04:27:37.806Z,7.63
2017-04-28T04:28:18.389Z,7.6
2017-04-28T04:28:58.949Z,7.47
2017-04-28T04:29:39.521Z,7.58
2017-04-28T04:30:20.102Z,7.51
2017-04-28T04:31:00.711Z,7.56
2017-04-28T04:31:41.771Z,7.54
2017-04-28T04:32:22.361Z,7.6
2017-04-28T04:33:02.944Z,7.53
2017-04-28T04:33:43.516Z,7.53
2017-04-28T04:34:24.137Z,7.66
2017-04-28T04:35:04.714Z,7.5
2017-04-28T04:35:45.325Z,7.48
2017-04-28T04:36:25.915Z,7.6
2017-04-28T04:37:06.520Z,7.6
2017-04-28T04:37:47.221Z,7.56
2017-04-28T04:38:27.822Z,7.66
2017-04-28T04:39:08.445Z,7.54
2017-04-28T04:39:49.033Z,7.61
2017-04-28T04:40:29.612Z,7.61
2017-04-28T04:41:10.296Z,7.51
2017-04-28T04:41:50.880Z,7.66
2017-04-28T04:42:31.534Z,7.66
2017-04-28T04:43:12.136Z,7.61
2017-04-28T04:43:52.753Z,7.61
2017-04-28T04:44:33.361Z,7.66
2017-04-28T04:45:13.925Z,7.58
2017-04-28T04:45:54.552Z,7.6
2017-04-28T04:46:35.153Z,7.63
2017-04-28T04:47:15.731Z,7.6
2017-04-28T04:47:56.351Z,7.63
2017-04-28T04:48:36.951Z,7.61
2017-04-28T04:49:17.615Z,7.61
2017-04-28T04:49:58.193Z,7.67
2017-04-28T04:50:38.768Z,7.61
2017-04-28T04:51:19.343Z,7.69
2017-04-28T04:51:59.971Z,7.7
2017-04-28T04:52:40.555Z,7.63
2017-04-28T04:53:21.123Z,7.66
2017-04-28T04:54:01.716Z,7.72
2017-04-28T04:54:42.308Z,7.73
2017-04-28T04:55:22.931Z,7.73
2017-04-28T04:56:03.506Z,7.7
2017-04-28T04:56:44.159Z,7.75
2017-04-28T04:57:24.731Z,7.73
2017-04-28T04:58:05.309Z,7.73
2017-04-28T04:58:45.917Z,7.76
2017-04-28T05:00:23.528Z,7.87
2017-04-28T05:01:04.128Z,7.8
2017-04-28T05:01:44.727Z,7.8
2017-04-28T05:02:25.364Z,7.8
2017-04-28T05:03:05.949Z,7.87
2017-04-28T05:03:46.544Z,7.9
2017-04-28T05:04:27.125Z,7.87
2017-04-28T05:05:07.726Z,7.9
2017-04-28T05:05:48.420Z,7.85
2017-04-28T05:06:29.021Z,7.82
2017-04-28T05:07:09.585Z,7.85
2017-04-28T05:07:50.166Z,7.94
2017-04-28T05:08:30.738Z,7.9
2017-04-28T05:09:11.313Z,7.94
2017-04-28T05:09:51.898Z,8.03
2017-04-28T05:10:32.499Z,7.98
2017-04-28T05:11:13.089Z,8.05
2017-04-28T05:11:53.676Z,8.03
2017-04-28T05:12:34.273Z,7.97
2017-04-28T05:13:14.894Z,8.09
2017-04-28T05:13:55.463Z,8.13
2017-04-28T05:14:36.052Z,8.12
2017-04-28T05:15:16.644Z,8.16
2017-04-28T05:15:57.259Z,8.08
2017-04-28T05:16:37.834Z,8.1
2017-04-28T05:17:18.426Z,8.13
2017-04-28T05:17:59.064Z,8.23
2017-04-28T05:18:39.647Z,8.24
2017-04-28T05:19:20.256Z,8.24
2017-04-28T05:20:00.836Z,8.24
2017-04-28T05:20:41.407Z,8.26
2017-04-28T05:21:21.996Z,8.31
2017-04-28T05:22:02.630Z,8.24
2017-04-28T05:22:43.199Z,8.38
2017-04-28T05:23:23.778Z,8.38
2017-04-28T05:24:04.391Z,8.37
2017-04-28T05:24:44.982Z,8.37
2017-04-28T05:25:25.654Z,8.42
2017-04-28T05:26:06.234Z,8.51
2017-04-28T05:26:46.808Z,8.37
2017-04-28T05:27:27.430Z,8.53
2017-04-28T05:28:07.995Z,8.52
2017-04-28T05:28:48.609Z,8.53
2017-04-28T05:29:29.181Z,8.51
2017-04-28T05:30:09.806Z,8.51
2017-04-28T05:30:50.407Z,8.58
2017-04-28T05:31:31.004Z,8.61
2017-04-28T05:32:11.599Z,8.58
2017-04-28T05:32:52.185Z,8.61
2017-04-28T05:33:32.831Z,8.58
2017-04-28T05:34:13.395Z,8.64
2017-04-28T05:34:53.976Z,8.71
2017-04-28T05:35:34.567Z,8.74
2017-04-28T05:36:15.163Z,8.79
2017-04-28T05:36:55.744Z,8.78
2017-04-28T05:37:36.325Z,8.73
2017-04-28T05:38:16.910Z,8.74
2017-04-28T05:38:57.519Z,8.85
2017-04-28T05:41:10.384Z,8.95
2017-04-28T05:41:51.103Z,8.92
2017-04-28T05:42:31.749Z,8.94
2017-04-28T05:43:12.342Z,8.99
2017-04-28T05:43:52.912Z,8.88
2017-04-28T05:44:48.159Z,8.92
2017-04-28T05:46:35.642Z,9
2017-04-28T05:47:16.226Z,9.22
2017-04-28T05:47:56.861Z,9.36
2017-04-28T05:48:37.491Z,9.62
2017-04-28T05:49:18.074Z,9.79
2017-04-28T05:49:58.651Z,10.02
2017-04-28T05:50:39.236Z,10.26
2017-04-28T05:51:19.811Z,10.67
2017-04-28T05:52:00.436Z,10.86
2017-04-28T05:52:41.036Z,10.97
2017-04-28T05:53:21.654Z,11.17
2017-04-28T05:54:02.263Z,11.47
2017-04-28T05:54:42.910Z,11.75
2017-04-28T05:55:23.530Z,11.83
2017-04-28T05:56:04.147Z,12.06
2017-04-28T05:56:44.720Z,12.17
2017-04-28T05:57:25.303Z,12.36
2017-04-28T05:58:05.874Z,12.47
2017-04-28T05:58:46.462Z,12.53
2017-04-28T05:59:27.063Z,12.72
2017-04-28T06:00:07.675Z,12.82
2017-04-28T06:00:48.262Z,12.9
2017-04-28T06:01:28.844Z,13.01
2017-04-28T06:02:09.433Z,13.2
2017-04-28T06:02:50.011Z,13.28
2017-04-28T06:03:30.591Z,13.37
2017-04-28T06:04:11.197Z,13.52
2017-04-28T06:04:51.821Z,13.52
2017-04-28T06:05:32.409Z,13.6
2017-04-28T06:06:13.028Z,13.75
2017-04-28T06:06:53.609Z,13.81
2017-04-28T06:07:34.240Z,13.89
2017-04-28T06:08:14.845Z,13.89
2017-04-28T06:08:55.560Z,14.03
2017-04-28T06:09:36.118Z,14.07
2017-04-28T06:10:16.689Z,14.07
2017-04-28T06:10:57.303Z,14.2
2017-04-28T06:11:37.901Z,14.3
2017-04-28T06:12:18.498Z,14.37
2017-04-28T06:12:59.091Z,14.36
2017-04-28T06:13:39.684Z,14.53
2017-04-28T06:14:20.283Z,14.45
2017-04-28T06:15:00.864Z,14.47
2017-04-28T06:15:41.469Z,14.6
2017-04-28T06:16:22.090Z,14.6
2017-04-28T06:17:02.734Z,14.65
2017-04-28T06:17:43.386Z,14.78
2017-04-28T06:18:23.979Z,14.85
2017-04-28T06:19:04.597Z,14.99
2017-04-28T06:19:45.188Z,15.06
2017-04-28T06:20:25.810Z,15.15
2017-04-28T06:21:06.427Z,15.27
2017-04-28T06:21:47.062Z,15.29
2017-04-28T06:22:27.699Z,15.33
2017-04-28T06:23:08.287Z,15.52
2017-04-28T06:23:48.929Z,15.52
2017-04-28T06:24:29.524Z,15.52
2017-04-28T06:25:10.159Z,15.54
2017-04-28T06:25:50.742Z,15.44
2017-04-28T06:26:31.371Z,15.37
2017-04-28T06:27:11.983Z,15.33
2017-04-28T06:27:52.655Z,15.33
2017-04-28T06:28:33.269Z,15.28
2017-04-28T06:29:13.884Z,15.21
2017-04-28T06:29:54.515Z,15.15
2017-04-28T06:30:35.106Z,15.17
2017-04-28T06:31:15.722Z,15.14
2017-04-28T06:31:56.345Z,15.09
2017-04-28T06:32:36.965Z,15.09
2017-04-28T06:33:17.542Z,15.14
2017-04-28T06:33:58.150Z,15.02
2017-04-28T06:34:38.812Z,15
2017-04-28T06:35:19.519Z,14.96
2017-04-28T06:36:00.210Z,14.92
2017-04-28T06:36:40.842Z,14.91
2017-04-28T06:37:21.412Z,14.94
2017-04-28T06:38:01.998Z,15.02
2017-04-28T06:38:42.575Z,14.99
2017-04-28T06:39:23.176Z,15.04
2017-04-28T06:40:03.801Z,14.99
2017-04-28T06:40:44.427Z,15.02
2017-04-28T06:41:25.082Z,14.96
2017-04-28T06:42:05.660Z,15.02
2017-04-28T06:42:46.240Z,14.91
2017-04-28T06:43:26.833Z,14.96
2017-04-28T06:44:07.426Z,15.03
2017-04-28T06:44:48.039Z,15.15
2017-04-28T06:45:28.627Z,15.07
2017-04-28T06:46:09.244Z,15.14
2017-04-28T06:46:49.856Z,15.27
2017-04-28T06:47:30.462Z,15.28
2017-04-28T06:48:11.114Z,15.24
2017-04-28T06:48:51.690Z,15.28
2017-04-28T06:49:32.553Z,15.35
2017-04-28T06:50:13.184Z,15.4
2017-04-28T06:50:53.781Z,15.42
2017-04-28T06:51:34.387Z,15.44
2017-04-28T06:52:14.975Z,15.51
2017-04-28T06:52:55.600Z,15.58
2017-04-28T06:53:36.237Z,15.55
2017-04-28T06:54:16.816Z,15.61
2017-04-28T06:54:57.742Z,15.59
2017-04-28T06:55:38.245Z,15.72
2017-04-28T06:56:18.857Z,15.77
2017-04-28T06:56:59.454Z,15.79
2017-04-28T06:57:40.170Z,15.76
2017-04-28T06:58:20.790Z,15.77
2017-04-28T06:59:01.395Z,15.8
2017-04-28T06:59:42.125Z,15.76
2017-04-28T07:00:22.805Z,15.77
2017-04-28T07:01:04.041Z,15.9
2017-04-28T07:01:44.807Z,15.75
2017-04-28T07:02:25.383Z,15.76
2017-04-28T07:03:06.035Z,15.73
2017-04-28T07:03:46.690Z,15.73
2017-04-28T07:04:27.313Z,15.84
2017-04-28T07:05:07.914Z,15.82
2017-04-28T07:05:48.627Z,15.83
2017-04-28T07:06:29.305Z,15.92
2017-04-28T07:07:09.934Z,15.98
2017-04-28T07:07:50.533Z,15.94
2017-04-28T07:08:31.179Z,16.05
2017-04-28T07:09:11.787Z,16.01
2017-04-28T07:09:52.369Z,16.05
2017-04-28T07:10:33.015Z,16.04
2017-04-28T07:11:13.577Z,15.97
2017-04-28T07:11:54.265Z,16
2017-04-28T07:12:34.902Z,15.95
2017-04-28T07:13:15.490Z,15.98
2017-04-28T07:13:56.089Z,16.1
2017-04-28T07:14:36.700Z,16.09
2017-04-28T07:15:17.315Z,16.04
2017-04-28T07:15:58.021Z,16.04
2017-04-28T07:16:38.675Z,16.1
2017-04-28T07:17:19.263Z,16.01
2017-04-28T07:17:59.888Z,16.08
2017-04-28T07:18:40.601Z,16.09
2017-04-28T07:19:21.209Z,16.08
2017-04-28T07:20:01.849Z,16.01
2017-04-28T07:20:42.493Z,16.04
2017-04-28T07:21:23.099Z,15.98
2017-04-28T07:22:03.754Z,16.04
2017-04-28T07:22:44.368Z,16.02
2017-04-28T07:23:24.932Z,15.98
2017-04-28T07:24:05.580Z,16.09
2017-04-28T07:24:46.178Z,16.12
2017-04-28T07:25:26.768Z,16.21
2017-04-28T07:26:07.362Z,16.26
2017-04-28T07:26:48.322Z,16.35
2017-04-28T07:27:28.972Z,16.35
2017-04-28T07:28:09.607Z,16.38
2017-04-28T07:28:50.229Z,16.43
2017-04-28T07:29:30.836Z,16.54
2017-04-28T07:30:11.444Z,16.58
2017-04-28T07:30:52.027Z,16.64
2017-04-28T07:31:32.612Z,16.66
2017-04-28T07:32:13.223Z,16.68
2017-04-28T07:32:53.836Z,16.65
2017-04-28T07:33:34.433Z,16.78
2017-04-28T07:34:15.036Z,16.74
2017-04-28T07:34:55.668Z,16.76
2017-04-28T07:35:36.328Z,16.87
2017-04-28T07:36:16.921Z,16.84
2017-04-28T07:36:57.542Z,16.94
2017-04-28T07:37:38.125Z,16.87
2017-04-28T07:38:18.704Z,16.91
2017-04-28T07:38:59.310Z,17.01
2017-04-28T07:39:39.914Z,17.02
2017-04-28T07:40:20.534Z,17.04
2017-04-28T07:41:01.233Z,17.02
2017-04-28T07:41:41.832Z,17.02
2017-04-28T07:42:22.469Z,17.04
2017-04-28T07:43:03.119Z,17.04
2017-04-28T07:43:43.809Z,17.05
2017-04-28T07:44:24.462Z,17.14
2017-04-28T07:45:05.157Z,17.12
2017-04-28T07:45:45.785Z,17.06
2017-04-28T07:46:26.419Z,17.11
2017-04-28T07:47:07.094Z,17.11
2017-04-28T07:47:47.688Z,17.2
2017-04-28T07:48:28.325Z,17.24
2017-04-28T07:49:08.939Z,17.19
2017-04-28T07:49:49.637Z,17.15
2017-04-28T07:50:30.293Z,17.09
2017-04-28T07:51:10.912Z,17.08
2017-04-28T07:51:51.557Z,17.09
2017-04-28T07:52:32.155Z,16.99
2017-04-28T07:53:12.806Z,17.01
2017-04-28T07:53:53.438Z,17.02
2017-04-28T07:54:34.046Z,17.02
2017-04-28T07:55:14.892Z,17.02
2017-04-28T07:55:55.548Z,16.96
2017-04-28T07:56:36.360Z,16.89
2017-04-28T07:57:16.986Z,16.89
2017-04-28T07:57:57.578Z,16.79
2017-04-28T07:58:38.208Z,16.76
2017-04-28T07:59:18.796Z,16.74
2017-04-28T07:59:59.412Z,16.66
2017-04-28T08:00:40.067Z,16.6
2017-04-28T08:01:20.696Z,16.54
2017-04-28T08:02:01.296Z,16.57
2017-04-28T08:02:41.873Z,16.54
2017-04-28T08:03:22.533Z,16.57
2017-04-28T08:04:03.135Z,16.6
2017-04-28T08:04:43.746Z,16.58
2017-04-28T08:05:24.400Z,16.65
2017-04-28T08:06:04.989Z,16.61
2017-04-28T08:06:45.581Z,16.64
2017-04-28T08:07:26.209Z,16.54
2017-04-28T08:08:07.649Z,16.54
2017-04-28T08:08:48.278Z,16.57
2017-04-28T08:09:29.933Z,16.61
2017-04-28T08:10:09.670Z,16.64
2017-04-28T08:10:50.504Z,16.57
2017-04-28T08:11:31.163Z,16.66
2017-04-28T08:12:11.815Z,16.68
2017-04-28T08:12:52.536Z,16.64
2017-04-28T08:13:33.352Z,16.75
2017-04-28T08:14:14.039Z,16.69
2017-04-28T08:14:54.676Z,16.81
2017-04-28T08:15:35.408Z,16.83
2017-04-28T08:16:16.182Z,16.79
2017-04-28T08:16:56.802Z,16.83
2017-04-28T08:17:38.078Z,16.81
2017-04-28T08:18:18.876Z,16.78
2017-04-28T08:18:59.485Z,16.68
2017-04-28T08:19:40.190Z,16.74
2017-04-28T08:20:21.091Z,16.64
2017-04-28T08:21:02.180Z,16.53
2017-04-28T08:21:43.060Z,16.49
2017-04-28T08:22:23.893Z,16.36
2017-04-28T08:23:04.631Z,16.41
2017-04-28T08:23:45.521Z,16.33
2017-04-28T08:24:26.256Z,16.38
2017-04-28T08:25:06.856Z,16.5
2017-04-28T08:25:47.513Z,16.47
2017-04-28T08:26:28.495Z,16.46
2017-04-28T08:27:09.081Z,16.47
2017-04-28T08:27:49.917Z,16.32
2017-04-28T08:28:30.465Z,16.38
2017-04-28T08:29:11.365Z,16.32
2017-04-28T08:29:52.125Z,16.31
2017-04-28T08:30:32.757Z,16.24
2017-04-28T08:31:13.453Z,16.23
2017-04-28T08:31:54.519Z,16.2
2017-04-28T08:32:35.481Z,16.13
2017-04-28T08:33:16.099Z,16.05
2017-04-28T08:33:56.959Z,16.05
2017-04-28T08:34:38.625Z,15.97
2017-04-28T08:35:19.253Z,16.05
2017-04-28T08:35:59.873Z,16
2017-04-28T08:36:40.560Z,15.98
2017-04-28T08:37:21.226Z,15.9
2017-04-28T08:38:02.782Z,15.84
2017-04-28T08:38:43.396Z,15.84
2017-04-28T08:39:24.127Z,15.79
2017-04-28T08:40:04.814Z,15.79
2017-04-28T08:40:45.452Z,15.77
2017-04-28T08:41:26.057Z,15.65
2017-04-28T08:42:06.735Z,15.61
2017-04-28T08:42:47.407Z,15.54
2017-04-28T08:43:28.699Z,15.46
2017-04-28T08:44:09.578Z,15.42
2017-04-28T08:44:50.207Z,15.33
2017-04-28T08:45:30.852Z,15.25
2017-04-28T08:46:11.587Z,15.31
2017-04-28T08:46:52.319Z,15.18
2017-04-28T08:47:33.057Z,15.19
2017-04-28T08:48:13.677Z,15.17
2017-04-28T08:48:54.569Z,15.04
2017-04-28T08:49:35.323Z,15
2017-04-28T08:50:15.940Z,14.94
2017-04-28T08:50:56.664Z,14.97
2017-04-28T08:51:37.315Z,14.91
2017-04-28T08:52:18.083Z,14.91
2017-04-28T08:52:58.984Z,14.89
2017-04-28T08:53:39.663Z,14.84
2017-04-28T08:54:20.377Z,14.85
2017-04-28T08:55:01.100Z,14.85
2017-04-28T08:55:41.797Z,14.85
2017-04-28T08:56:22.541Z,14.81
2017-04-28T08:57:03.324Z,14.79
2017-04-28T08:57:43.903Z,14.81
2017-04-28T08:58:24.534Z,14.69
2017-04-28T08:59:05.129Z,14.78
2017-04-28T08:59:45.810Z,14.72
2017-04-28T09:00:26.538Z,14.77
2017-04-28T09:01:07.242Z,14.69
2017-04-28T09:01:48.018Z,14.62
2017-04-28T09:02:28.642Z,14.62
2017-04-28T09:03:09.350Z,14.54
2017-04-28T09:03:50.068Z,14.59
2017-04-28T09:04:30.777Z,14.5